Aurillac Airport

Airport
ICAO code: 
LFLW
IATA Code: 
AUR
Summary
ICAO Region: 
EUR
Territory: 
Location: 
, Auvergne
Serving: 
Aurillac
Elevation: 
2096 ft
Coordinates: 
Aerial View: 
44° 53' 28.997" N, 2° 25' 18.998" E
Metar
Observation
LFLW 210430Z AUTO 12004KT 050V160 CAVOK M03/M07 Q1026
Station
Aurillac
Date/Time
2022-01-21 04:30:00
Wind direction
120°
Wind speed
04 kts
Lowest cloud amount
clouds and visibility OK
Temperature
-3°C
Dew point
-7°C
Humidity
73%
QNH
1026 hPa
Weather condition
n/a

Runways

Designator Length Width Surface Rops
15/33 1700 30 ASP No/No
Airport map: 
Aerial View: 

SKYbrary Partners:

Safety knowledge contributed by: